createdAt,value
2023-09-23T00:01:07.113Z,0.50
2023-09-23T00:03:35.929Z,0.30
2023-09-23T00:06:04.288Z,0.30
2023-09-23T00:08:31.712Z,0.32
2023-09-23T00:10:59.376Z,0.30
2023-09-23T00:13:27.081Z,0.60
2023-09-23T00:15:54.693Z,0.40
2023-09-23T00:18:22.161Z,0.20
2023-09-23T00:20:50.366Z,0.88
2023-09-23T00:23:18.351Z,0.30
2023-09-23T00:25:48.553Z,0.30
2023-09-23T00:28:16.535Z,0.30
2023-09-23T00:30:47.879Z,0.30
2023-09-23T00:33:18.683Z,0.28
2023-09-23T00:35:46.627Z,0.30
2023-09-23T00:38:14.206Z,0.28
2023-09-23T00:40:41.820Z,0.40
2023-09-23T00:43:10.780Z,0.30
2023-09-23T00:45:38.555Z,0.38
2023-09-23T00:48:10.132Z,0.30
2023-09-23T00:50:38.021Z,0.30
2023-09-23T00:53:07.768Z,0.50
2023-09-23T00:55:42.605Z,0.25
2023-09-23T00:58:16.218Z,0.77
2023-09-23T01:00:46.739Z,0.40
2023-09-23T01:03:14.588Z,0.30
2023-09-23T01:05:42.150Z,0.40
2023-09-23T01:08:13.058Z,0.35
2023-09-23T01:10:41.606Z,0.30
2023-09-23T01:13:09.849Z,0.25
2023-09-23T01:15:48.155Z,0.35
2023-09-23T01:18:15.763Z,0.40
2023-09-23T01:20:44.546Z,0.30
2023-09-23T01:23:12.672Z,0.30
2023-09-23T01:25:40.804Z,0.30
2023-09-23T01:28:12.801Z,0.28
2023-09-23T01:30:42.625Z,0.40
2023-09-23T01:33:10.507Z,0.30
2023-09-23T01:35:38.735Z,0.40
2023-09-23T01:38:08.118Z,0.35
2023-09-23T01:40:38.039Z,1.58
2023-09-23T01:43:05.793Z,0.60
2023-09-23T01:45:33.905Z,0.50
2023-09-23T01:48:01.507Z,0.30
2023-09-23T01:50:29.465Z,0.50
2023-09-23T01:53:01.063Z,0.47
2023-09-23T01:55:29.822Z,0.22
2023-09-23T01:57:57.908Z,0.60
2023-09-23T02:00:30.721Z,0.30
2023-09-23T02:02:59.249Z,0.55
2023-09-23T02:05:30.948Z,0.43
2023-09-23T02:07:58.597Z,1.00
2023-09-23T02:10:28.234Z,0.50
2023-09-23T02:12:56.231Z,0.40
2023-09-23T02:15:23.985Z,0.60
2023-09-23T02:17:51.815Z,0.40
2023-09-23T02:20:21.644Z,2.47
2023-09-23T02:22:52.378Z,0.50
2023-09-23T02:25:19.910Z,0.40
2023-09-23T02:27:48.088Z,0.40
2023-09-23T02:30:16.165Z,0.30
2023-09-23T02:32:45.399Z,0.40
2023-09-23T02:35:14.653Z,0.50
2023-09-23T02:37:43.983Z,0.30
2023-09-23T02:40:15.908Z,0.47
2023-09-23T02:42:44.649Z,0.40
2023-09-23T02:45:13.963Z,0.60
2023-09-23T02:47:47.860Z,0.40
2023-09-23T02:50:16.182Z,0.50
2023-09-23T02:52:46.978Z,0.40
2023-09-23T02:55:17.169Z,0.45
2023-09-23T02:57:48.554Z,0.35
2023-09-23T03:00:18.787Z,0.43
2023-09-23T03:02:55.060Z,0.40
2023-09-23T03:05:31.361Z,0.50
2023-09-23T03:08:01.609Z,0.50
2023-09-23T03:10:35.959Z,0.82
2023-09-23T03:13:08.303Z,0.40
2023-09-23T03:15:39.573Z,0.50
2023-09-23T03:18:08.197Z,0.50
2023-09-23T03:20:38.266Z,0.40
2023-09-23T03:23:06.098Z,0.40
2023-09-23T03:25:33.428Z,0.32
2023-09-23T03:28:01.113Z,0.40
2023-09-23T03:30:29.104Z,0.40
2023-09-23T03:32:56.986Z,0.40
2023-09-23T03:35:26.578Z,0.30
2023-09-23T03:37:54.778Z,0.43
2023-09-23T03:40:26.632Z,0.30
2023-09-23T03:42:54.104Z,0.60
2023-09-23T03:45:21.542Z,0.50
2023-09-23T03:47:49.217Z,1.50
2023-09-23T03:50:17.721Z,0.60
2023-09-23T03:52:46.462Z,0.47
2023-09-23T03:55:14.159Z,0.47
2023-09-23T03:57:41.901Z,0.30
2023-09-23T04:00:19.262Z,0.50
2023-09-23T04:02:50.076Z,0.65
2023-09-23T04:05:18.235Z,0.50
2023-09-23T04:07:52.422Z,0.50
2023-09-23T04:10:25.170Z,0.60
2023-09-23T04:12:53.159Z,0.40
2023-09-23T04:15:21.623Z,0.60
2023-09-23T04:17:49.326Z,0.30
2023-09-23T04:20:16.920Z,0.50
2023-09-23T04:22:44.751Z,0.43
2023-09-23T04:25:12.524Z,0.70
2023-09-23T04:27:40.110Z,0.45
2023-09-23T04:30:13.234Z,1.35
2023-09-23T04:32:41.874Z,0.30
2023-09-23T04:35:11.063Z,0.50
2023-09-23T04:37:39.513Z,0.50
2023-09-23T04:40:11.487Z,0.40
2023-09-23T04:42:40.666Z,0.33
2023-09-23T04:45:10.884Z,0.40
2023-09-23T04:47:39.589Z,0.40
2023-09-23T04:50:10.152Z,0.40
2023-09-23T04:52:37.724Z,0.40
2023-09-23T04:55:05.711Z,0.43
2023-09-23T04:57:33.234Z,0.55
2023-09-23T05:00:00.549Z,0.40
2023-09-23T05:02:28.115Z,0.70
2023-09-23T05:04:55.736Z,0.50
2023-09-23T05:07:26.751Z,0.50
2023-09-23T05:09:57.313Z,0.38
2023-09-23T05:12:25.774Z,0.40
2023-09-23T05:14:54.438Z,0.45
2023-09-23T05:17:23.454Z,0.35
2023-09-23T05:19:51.069Z,0.43
2023-09-23T05:22:18.542Z,0.40
2023-09-23T05:24:49.270Z,0.40
2023-09-23T05:27:16.871Z,0.40
2023-09-23T05:29:46.497Z,0.47
2023-09-23T05:32:13.945Z,0.40
2023-09-23T05:34:41.461Z,0.40
2023-09-23T05:37:14.280Z,0.82
2023-09-23T05:42:17.383Z,0.40
2023-09-23T05:44:45.716Z,0.47
2023-09-23T05:47:13.342Z,0.30
2023-09-23T05:49:40.981Z,0.50
2023-09-23T05:52:08.430Z,0.40
2023-09-23T05:54:35.949Z,0.40
2023-09-23T05:57:03.607Z,0.30
2023-09-23T05:59:32.413Z,0.70
2023-09-23T06:01:59.917Z,0.30
2023-09-23T06:04:27.318Z,1.90
2023-09-23T06:06:56.446Z,0.40
2023-09-23T06:09:25.384Z,0.30
2023-09-23T06:11:52.942Z,0.47
2023-09-23T06:14:20.521Z,0.30
2023-09-23T06:16:49.393Z,0.30
2023-09-23T06:19:17.323Z,0.47
2023-09-23T06:21:44.744Z,1.08
2023-09-23T06:24:12.427Z,0.30
2023-09-23T06:26:40.487Z,0.40
2023-09-23T06:29:08.067Z,0.40
2023-09-23T06:31:35.533Z,0.40
2023-09-23T06:34:03.044Z,0.50
2023-09-23T06:36:30.412Z,0.68
2023-09-23T06:38:57.983Z,0.40
2023-09-23T06:41:25.579Z,0.45
2023-09-23T06:43:53.863Z,0.43
2023-09-23T06:46:21.697Z,0.40
2023-09-23T06:48:49.304Z,0.47
2023-09-23T06:51:16.910Z,0.50
2023-09-23T06:53:46.790Z,0.40
2023-09-23T06:56:14.547Z,0.52
2023-09-23T06:58:42.008Z,0.43
2023-09-23T07:01:09.394Z,0.30
2023-09-23T07:03:36.953Z,0.50
2023-09-23T07:06:04.449Z,0.38
2023-09-23T07:08:31.898Z,0.38
2023-09-23T07:10:59.357Z,0.60
2023-09-23T07:13:26.880Z,0.50
2023-09-23T07:15:54.305Z,0.50
2023-09-23T07:18:21.782Z,0.60
2023-09-23T07:20:49.217Z,0.60
2023-09-23T07:23:16.682Z,0.60
2023-09-23T07:25:44.400Z,0.40
2023-09-23T07:28:11.864Z,0.73
2023-09-23T07:30:39.831Z,1.35
2023-09-23T07:33:07.336Z,0.65
2023-09-23T07:35:35.433Z,0.40
2023-09-23T07:38:04.588Z,0.47
2023-09-23T07:40:32.829Z,0.50
2023-09-23T07:43:00.315Z,0.40
2023-09-23T07:45:27.834Z,0.63
2023-09-23T07:47:55.279Z,0.60
2023-09-23T07:50:23.566Z,1.08
2023-09-23T07:52:51.065Z,0.68
2023-09-23T07:55:19.331Z,0.50
2023-09-23T07:57:46.954Z,0.50
2023-09-23T08:00:15.445Z,0.50
2023-09-23T08:02:45.998Z,0.40
2023-09-23T08:05:14.227Z,0.50
2023-09-23T08:07:44.754Z,0.50
2023-09-23T08:10:12.191Z,0.40
2023-09-23T08:12:39.639Z,0.65
2023-09-23T08:17:51.025Z,0.50
2023-09-23T08:20:21.872Z,0.50
2023-09-23T08:22:50.398Z,0.43
2023-09-23T08:25:20.082Z,0.50
2023-09-23T08:27:48.252Z,0.50
2023-09-23T08:30:18.701Z,0.65
2023-09-23T08:32:47.434Z,0.43
2023-09-23T08:35:15.025Z,0.50
2023-09-23T08:37:42.660Z,0.55
2023-09-23T08:40:12.698Z,0.40
2023-09-23T08:42:41.047Z,0.45
2023-09-23T08:45:11.971Z,0.32
2023-09-23T08:47:40.066Z,0.40
2023-09-23T08:50:10.346Z,0.57
2023-09-23T08:52:38.543Z,1.05
2023-09-23T08:55:09.007Z,0.30
2023-09-23T08:57:36.649Z,0.50
2023-09-23T09:00:09.749Z,0.30
2023-09-23T09:02:37.378Z,0.30
2023-09-23T09:05:05.190Z,0.45
2023-09-23T09:07:37.588Z,0.90
2023-09-23T09:10:06.422Z,0.50
2023-09-23T09:12:34.948Z,0.43
2023-09-23T09:15:09.672Z,0.38
2023-09-23T09:17:37.416Z,0.40
2023-09-23T09:20:10.874Z,0.30
2023-09-23T09:22:40.344Z,0.60
2023-09-23T09:25:16.543Z,0.68
2023-09-23T09:27:45.828Z,0.40
2023-09-23T09:30:14.643Z,0.47
2023-09-23T09:32:44.302Z,0.50
2023-09-23T09:35:15.665Z,0.52
2023-09-23T09:37:45.553Z,1.52
2023-09-23T09:40:19.417Z,0.40
2023-09-23T09:42:56.330Z,0.30
2023-09-23T09:45:25.362Z,0.32
2023-09-23T09:47:55.069Z,0.47
2023-09-23T09:50:27.468Z,0.38
2023-09-23T09:52:55.305Z,0.40
2023-09-23T09:55:26.893Z,0.30
2023-09-23T09:57:56.843Z,0.50
2023-09-23T10:00:32.679Z,0.75
2023-09-23T10:03:07.813Z,0.90
2023-09-23T10:05:38.704Z,0.40
2023-09-23T10:08:17.401Z,0.40
2023-09-23T10:10:48.941Z,0.50
2023-09-23T10:13:21.478Z,0.40
2023-09-23T10:15:49.225Z,0.57
2023-09-23T10:18:19.623Z,1.45
2023-09-23T10:20:53.326Z,0.50
2023-09-23T10:23:22.814Z,0.50
2023-09-23T10:25:52.950Z,0.65
2023-09-23T10:28:23.324Z,0.40
2023-09-23T10:30:59.961Z,0.40
2023-09-23T10:33:28.022Z,0.50
2023-09-23T10:36:12.754Z,0.50
2023-09-23T10:38:41.642Z,0.60
2023-09-23T10:41:09.411Z,0.30
2023-09-23T10:43:37.351Z,0.60
2023-09-23T10:46:04.777Z,0.40
2023-09-23T10:48:33.392Z,0.30
2023-09-23T10:51:02.506Z,0.40
2023-09-23T10:53:30.988Z,0.40
2023-09-23T10:56:01.516Z,0.30
2023-09-23T10:58:29.833Z,0.50
2023-09-23T11:00:59.017Z,0.43
2023-09-23T11:03:26.731Z,0.20
2023-09-23T11:05:55.685Z,0.30
2023-09-23T11:08:24.183Z,0.35
2023-09-23T11:10:52.228Z,0.20
2023-09-23T11:13:19.962Z,0.20
2023-09-23T11:15:47.544Z,0.20
2023-09-23T11:18:17.190Z,0.30
2023-09-23T11:20:47.038Z,0.30
2023-09-23T11:23:15.871Z,0.28
2023-09-23T11:25:46.687Z,0.20
2023-09-23T11:28:23.613Z,0.65
2023-09-23T11:30:52.786Z,0.35
2023-09-23T11:33:20.859Z,0.30
2023-09-23T11:35:48.714Z,0.43
2023-09-23T11:38:16.488Z,0.30
2023-09-23T11:40:44.813Z,0.30
2023-09-23T11:43:12.335Z,0.25
2023-09-23T11:45:43.745Z,0.60
2023-09-23T11:48:14.508Z,0.30
2023-09-23T11:50:42.489Z,0.30
2023-09-23T11:53:10.668Z,0.30
2023-09-23T11:55:38.206Z,0.30
2023-09-23T11:58:05.873Z,0.30
2023-09-23T12:00:36.168Z,0.40
2023-09-23T12:03:03.658Z,0.30
2023-09-23T12:05:31.926Z,0.20
2023-09-23T12:08:01.517Z,0.50
2023-09-23T12:10:31.407Z,0.30
2023-09-23T12:13:05.348Z,0.30
2023-09-23T12:15:35.800Z,0.32
2023-09-23T12:18:03.383Z,0.30
2023-09-23T12:20:31.156Z,0.30
2023-09-23T12:23:00.549Z,0.30
2023-09-23T12:25:28.084Z,0.25
2023-09-23T12:27:55.495Z,0.30
2023-09-23T12:30:23.032Z,0.40
2023-09-23T12:32:50.490Z,0.30
2023-09-23T12:35:18.133Z,0.43
2023-09-23T12:37:45.846Z,0.30
2023-09-23T12:40:13.363Z,0.40
2023-09-23T12:42:40.798Z,0.30
2023-09-23T12:45:09.774Z,0.30
2023-09-23T12:47:55.207Z,0.60
2023-09-23T12:50:26.058Z,0.35
2023-09-23T12:52:55.098Z,0.40
2023-09-23T12:55:22.664Z,0.30
2023-09-23T12:57:50.295Z,0.40
2023-09-23T13:00:18.336Z,0.30
2023-09-23T13:02:46.119Z,0.38
2023-09-23T13:05:14.335Z,0.40
2023-09-23T13:07:41.761Z,0.22
2023-09-23T13:10:14.541Z,0.30
2023-09-23T13:12:43.050Z,0.40
2023-09-23T13:15:10.676Z,0.38
2023-09-23T13:17:38.740Z,0.40
2023-09-23T13:20:07.560Z,0.45
2023-09-23T13:22:35.137Z,0.40
2023-09-23T13:25:02.721Z,0.40
2023-09-23T13:27:30.364Z,0.47
2023-09-23T13:29:57.916Z,0.50
2023-09-23T13:32:25.373Z,0.32
2023-09-23T13:34:52.817Z,0.35
2023-09-23T13:37:20.323Z,0.40
2023-09-23T13:39:47.840Z,0.30
2023-09-23T13:42:15.348Z,0.40
2023-09-23T13:44:47.407Z,0.30
2023-09-23T13:47:14.898Z,0.35
2023-09-23T13:49:42.515Z,0.40
2023-09-23T13:52:10.134Z,0.40
2023-09-23T13:54:37.544Z,0.50
2023-09-23T13:57:06.066Z,0.30
2023-09-23T13:59:33.803Z,0.30
2023-09-23T14:02:01.460Z,0.40
2023-09-23T14:04:28.966Z,0.50
2023-09-23T14:06:56.673Z,0.40
2023-09-23T14:09:24.629Z,0.35
2023-09-23T14:11:54.029Z,0.50
2023-09-23T14:14:21.660Z,0.40
2023-09-23T14:16:49.677Z,0.73
2023-09-23T14:19:17.667Z,0.50
2023-09-23T14:21:45.205Z,0.43
2023-09-23T14:24:13.086Z,0.47
2023-09-23T14:26:40.672Z,0.30
2023-09-23T14:29:08.158Z,0.40
2023-09-23T14:31:35.641Z,0.40
2023-09-23T14:34:05.109Z,0.38
2023-09-23T14:36:34.028Z,0.70
2023-09-23T14:39:05.273Z,0.50
2023-09-23T14:41:35.402Z,0.40
2023-09-23T14:44:04.439Z,0.40
2023-09-23T14:46:32.357Z,0.40
2023-09-23T14:49:00.079Z,0.60
2023-09-23T14:51:30.618Z,0.55
2023-09-23T14:53:58.106Z,0.45
2023-09-23T14:56:27.586Z,0.40
2023-09-23T14:58:55.131Z,0.50
2023-09-23T15:01:22.700Z,0.30
2023-09-23T15:03:50.387Z,0.30
2023-09-23T15:06:18.685Z,0.35
2023-09-23T15:08:59.275Z,0.32
2023-09-23T15:11:29.297Z,0.40
2023-09-23T15:13:57.420Z,0.50
2023-09-23T15:16:25.686Z,0.50
2023-09-23T15:18:53.701Z,0.50
2023-09-23T15:21:21.401Z,0.40
2023-09-23T15:23:49.468Z,0.60
2023-09-23T15:26:17.844Z,0.50
2023-09-23T15:28:46.054Z,0.60
2023-09-23T15:31:13.826Z,0.95
2023-09-23T15:33:41.483Z,0.40
2023-09-23T15:36:13.773Z,0.50
2023-09-23T15:38:41.335Z,0.50
2023-09-23T15:41:09.396Z,0.40
2023-09-23T15:43:37.319Z,0.60
2023-09-23T15:46:05.523Z,0.70
2023-09-23T15:48:33.023Z,1.77
2023-09-23T15:51:13.599Z,0.70
2023-09-23T15:53:41.108Z,0.50
2023-09-23T15:56:09.100Z,0.50
2023-09-23T15:58:40.106Z,0.47
2023-09-23T16:01:08.623Z,0.50
2023-09-23T16:03:36.625Z,0.47
2023-09-23T16:06:04.911Z,0.60
2023-09-23T16:08:32.544Z,1.40
2023-09-23T16:11:00.927Z,0.50
2023-09-23T16:13:29.643Z,0.60
2023-09-23T16:15:57.269Z,0.50
2023-09-23T16:18:26.294Z,0.80
2023-09-23T16:20:53.772Z,0.60
2023-09-23T16:23:21.314Z,0.50
2023-09-23T16:25:48.852Z,0.63
2023-09-23T16:28:16.484Z,0.60
2023-09-23T16:30:44.133Z,0.63
2023-09-23T16:33:14.035Z,0.80
2023-09-23T16:35:42.167Z,0.60
2023-09-23T16:38:09.861Z,0.50
2023-09-23T16:40:37.845Z,0.40
2023-09-23T16:43:07.108Z,0.40
2023-09-23T16:45:36.081Z,0.60
2023-09-23T16:48:04.575Z,0.65
2023-09-23T16:50:32.211Z,0.52
2023-09-23T16:53:00.874Z,0.50
2023-09-23T16:55:29.427Z,0.65
2023-09-23T16:57:58.343Z,0.75
2023-09-23T17:00:26.810Z,0.90
2023-09-23T17:02:55.302Z,0.60
2023-09-23T17:05:22.970Z,0.60
2023-09-23T17:07:51.632Z,0.68
2023-09-23T17:10:19.397Z,0.95
2023-09-23T17:12:46.831Z,0.80
2023-09-23T17:15:14.373Z,0.60
2023-09-23T17:17:41.994Z,0.60
2023-09-23T17:20:11.356Z,0.60
2023-09-23T17:22:38.903Z,0.52
2023-09-23T17:25:09.606Z,0.80
2023-09-23T17:27:37.145Z,0.70
2023-09-23T17:30:06.928Z,0.90
2023-09-23T17:32:35.096Z,0.82
2023-09-23T17:35:02.860Z,0.50
2023-09-23T17:37:30.264Z,0.70
2023-09-23T17:39:57.703Z,0.60
2023-09-23T17:42:26.975Z,0.90
2023-09-23T17:44:54.538Z,1.98
2023-09-23T17:47:22.074Z,2.70
2023-09-23T17:49:49.593Z,1.52
2023-09-23T17:52:17.241Z,1.38
2023-09-23T17:54:44.975Z,1.40
2023-09-23T17:57:12.436Z,1.15
2023-09-23T17:59:40.207Z,1.40
2023-09-23T18:02:08.285Z,0.77
2023-09-23T18:04:36.089Z,0.90
2023-09-23T18:07:03.697Z,1.00
2023-09-23T18:09:31.187Z,1.20
2023-09-23T18:11:58.736Z,0.80
2023-09-23T18:14:26.435Z,0.73
2023-09-23T18:16:54.562Z,0.57
2023-09-23T18:19:22.095Z,0.70
2023-09-23T18:21:49.624Z,0.73
2023-09-23T18:24:17.188Z,0.98
2023-09-23T18:26:44.828Z,0.82
2023-09-23T18:29:13.257Z,0.60
2023-09-23T18:31:42.754Z,1.88
2023-09-23T18:34:10.338Z,0.60
2023-09-23T18:36:37.874Z,0.73
2023-09-23T18:39:05.600Z,0.80
2023-09-23T18:41:33.264Z,0.80
2023-09-23T18:44:00.831Z,0.90
2023-09-23T18:46:28.363Z,0.82
2023-09-23T18:48:56.299Z,1.20
2023-09-23T18:51:24.020Z,1.80
2023-09-23T18:53:52.984Z,1.02
2023-09-23T18:56:20.578Z,0.90
2023-09-23T18:58:49.629Z,0.80
2023-09-23T19:01:20.386Z,0.80
2023-09-23T19:03:49.082Z,0.93
2023-09-23T19:06:18.617Z,1.00
2023-09-23T19:08:46.684Z,1.35
2023-09-23T19:11:27.014Z,1.38
2023-09-23T19:13:55.513Z,1.30
2023-09-23T19:16:27.224Z,1.42
2023-09-23T19:18:55.885Z,1.33
2023-09-23T19:21:25.273Z,1.50
2023-09-23T19:23:52.866Z,1.00
2023-09-23T19:26:22.223Z,1.42
2023-09-23T19:28:52.192Z,1.58
2023-09-23T19:31:23.841Z,1.40
2023-09-23T19:33:55.132Z,1.48
2023-09-23T19:36:24.086Z,1.50
2023-09-23T19:38:51.665Z,1.60
2023-09-23T19:41:19.233Z,1.17
2023-09-23T19:43:49.174Z,2.25
2023-09-23T19:46:21.904Z,1.53
2023-09-23T19:48:51.083Z,1.55
2023-09-23T19:51:25.418Z,1.58
2023-09-23T19:53:53.821Z,1.63
2023-09-23T19:56:23.145Z,1.77
2023-09-23T19:58:51.895Z,1.50
2023-09-23T20:01:21.208Z,1.80
2023-09-23T20:03:52.628Z,1.35
2023-09-23T20:06:20.283Z,1.55
2023-09-23T20:08:49.159Z,1.15
2023-09-23T20:11:22.275Z,1.30
2023-09-23T20:13:54.166Z,1.88
2023-09-23T20:16:32.332Z,2.20
2023-09-23T20:19:04.613Z,6.97
2023-09-23T20:21:32.517Z,2.58
2023-09-23T20:24:01.152Z,3.75
2023-09-23T20:26:28.605Z,3.00
2023-09-23T20:29:03.293Z,2.05
2023-09-23T20:31:31.634Z,1.45
2023-09-23T20:33:59.171Z,1.23
2023-09-23T20:36:27.922Z,1.50
2023-09-23T20:39:00.725Z,1.50
2023-09-23T20:41:30.111Z,1.20
2023-09-23T20:44:04.956Z,1.17
2023-09-23T20:46:34.328Z,0.95
2023-09-23T20:49:02.826Z,1.20
2023-09-23T20:51:33.323Z,1.05
2023-09-23T20:54:02.773Z,1.10
2023-09-23T20:56:30.606Z,0.98
2023-09-23T20:58:59.229Z,1.30
2023-09-23T21:01:28.091Z,1.17
2023-09-23T21:03:55.877Z,1.23
2023-09-23T21:06:25.040Z,1.10
2023-09-23T21:08:53.225Z,0.82
2023-09-23T21:11:22.415Z,1.17
2023-09-23T21:13:50.072Z,0.95
2023-09-23T21:16:18.317Z,1.10
2023-09-23T21:18:46.116Z,1.10
2023-09-23T21:21:13.866Z,1.27
2023-09-23T21:23:41.450Z,1.23
2023-09-23T21:26:12.779Z,0.80
2023-09-23T21:28:40.546Z,0.90
2023-09-23T21:31:08.113Z,0.70
2023-09-23T21:33:35.646Z,1.10
2023-09-23T21:36:05.410Z,1.80
2023-09-23T21:38:32.983Z,0.73
2023-09-23T21:41:00.673Z,0.90
2023-09-23T21:43:28.158Z,0.93
2023-09-23T21:45:56.737Z,1.25
2023-09-23T21:48:26.033Z,0.63
2023-09-23T21:51:03.112Z,0.90
2023-09-23T21:53:31.012Z,1.02
2023-09-23T21:55:59.872Z,0.75
2023-09-23T21:58:27.499Z,1.17
2023-09-23T22:01:04.409Z,1.13
2023-09-23T22:03:32.985Z,1.23
2023-09-23T22:06:00.915Z,1.00
2023-09-23T22:08:29.125Z,1.05
2023-09-23T22:10:56.623Z,0.93
2023-09-23T22:13:24.831Z,0.90
2023-09-23T22:15:52.327Z,1.92
2023-09-23T22:18:21.768Z,1.02
2023-09-23T22:20:51.601Z,1.45
2023-09-23T22:23:19.184Z,0.98
2023-09-23T22:25:47.190Z,1.15
2023-09-23T22:28:14.707Z,1.88
2023-09-23T22:30:42.152Z,0.80
2023-09-23T22:33:10.018Z,0.77
2023-09-23T22:35:38.325Z,1.00
2023-09-23T22:38:06.492Z,0.80
2023-09-23T22:40:33.978Z,1.40
2023-09-23T22:43:01.606Z,1.10
2023-09-23T22:45:38.765Z,1.25
2023-09-23T22:48:09.103Z,0.90
2023-09-23T22:50:36.929Z,0.82
2023-09-23T22:53:06.559Z,1.00
2023-09-23T22:55:34.350Z,1.15
2023-09-23T22:58:01.865Z,1.20
2023-09-23T23:00:29.704Z,1.10
2023-09-23T23:02:58.631Z,1.52
2023-09-23T23:05:27.695Z,0.80
2023-09-23T23:07:57.673Z,1.17
2023-09-23T23:10:25.264Z,0.82
2023-09-23T23:12:52.755Z,0.95
2023-09-23T23:15:28.631Z,0.77
2023-09-23T23:17:57.514Z,1.23
2023-09-23T23:20:25.649Z,0.95
2023-09-23T23:22:54.809Z,0.90
2023-09-23T23:25:23.359Z,0.90
2023-09-23T23:27:51.226Z,0.82
2023-09-23T23:30:20.047Z,1.00
2023-09-23T23:32:48.448Z,0.77
2023-09-23T23:35:24.062Z,1.15
2023-09-23T23:37:52.789Z,0.75
2023-09-23T23:40:24.634Z,1.10
2023-09-23T23:42:52.350Z,1.17
2023-09-23T23:45:21.270Z,0.70
2023-09-23T23:47:53.564Z,1.08
2023-09-23T23:50:22.023Z,1.02
2023-09-23T23:52:50.551Z,1.10
2023-09-23T23:55:18.160Z,1.95
2023-09-23T23:57:46.812Z,1.00
